Time;durP1;ratioP1;P1;durP2;ratioP2;P2;SDS_P1;SDS_P2;PMS_P1;PMS_P2;Temp;Humidity;BMP_temperature;BMP_pressure;BME280_temperature;BME280_humidity;BME280_pressure;Samples;Min_cycle;Max_cycle;Signal;HPM_P1;HPM_P2
2023/06/10 00:00:44;;;;;;;7.82;6.88;;;18.90;99.90;;;-144.05;53.86;56833.97;5043896;28;20025;-81
2023/06/10 00:03:10;;;;;;;11.40;7.15;;;18.90;99.90;;;-144.05;53.82;56825.47;5042388;28;20029;-78
2023/06/10 00:05:38;;;;;;;8.95;7.45;;;18.90;99.90;;;-144.05;53.85;56848.84;5038288;28;20033;-77
2023/06/10 00:08:08;;;;;;;10.07;6.13;;;18.90;99.90;;;-144.05;53.74;56838.22;5038353;28;20111;-78
2023/06/10 00:10:36;;;;;;;9.38;7.18;;;18.90;99.90;;;-144.05;53.98;56833.97;5037894;28;20021;-77
2023/06/10 00:13:11;;;;;;;9.13;7.22;;;18.80;99.90;;;-144.05;53.74;56855.22;5039096;28;20160;-78
2023/06/10 00:15:37;;;;;;;8.02;6.72;;;18.90;99.90;;;-144.05;53.47;56831.84;5038544;28;20033;-77
2023/06/10 00:18:04;;;;;;;7.85;6.93;;;19.00;99.90;;;-144.05;53.19;56882.81;5036894;28;20034;-80
2023/06/10 00:20:31;;;;;;;7.60;6.88;;;19.00;99.90;;;-144.05;52.93;56831.84;5018363;28;20037;-76
2023/06/10 00:23:01;;;;;;;9.15;6.82;;;19.00;99.90;;;-144.05;52.83;56848.84;5035964;28;20036;-78
2023/06/10 00:25:27;;;;;;;10.60;7.18;;;19.10;99.90;;;-144.05;52.55;56838.22;5035884;28;20155;-77
2023/06/10 00:27:52;;;;;;;9.23;6.38;;;19.10;99.90;;;-144.05;52.99;56853.09;5035012;28;20123;-76
2023/06/10 00:30:18;;;;;;;7.25;6.40;;;19.00;99.90;;;-144.05;53.20;56829.72;5034311;28;20037;-78
2023/06/10 00:32:45;;;;;;;7.00;6.20;;;18.90;99.90;;;-144.05;53.92;56855.22;5034440;28;20033;-79
2023/06/10 00:35:11;;;;;;;11.60;7.93;;;18.80;99.90;;;-144.05;54.95;56850.97;5033395;28;20075;-77
2023/06/10 00:37:37;;;;;;;10.35;7.15;;;18.70;99.90;;;-144.05;55.14;56836.09;5016899;28;20022;-77
2023/06/10 00:40:05;;;;;;;10.45;7.75;;;18.60;99.90;;;-144.05;55.53;56840.34;5033899;28;20025;-77
2023/06/10 00:42:31;;;;;;;9.60;6.95;;;18.60;99.90;;;-144.05;55.68;56840.34;5058632;22;20441;-83
2023/06/10 00:44:57;;;;;;;10.00;7.97;;;18.50;99.90;;;-144.05;56.22;56857.34;5055244;28;20351;-83
2023/06/10 00:47:25;;;;;;;12.13;7.00;;;18.40;99.90;;;-144.05;56.25;56848.84;5055518;28;20116;-82
2023/06/10 00:49:51;;;;;;;10.48;7.80;;;18.40;99.90;;;-144.05;56.43;56846.72;5055091;28;20056;-83
2023/06/10 00:52:22;;;;;;;12.10;7.90;;;18.30;99.90;;;-144.05;56.69;56850.97;5071625;28;20020;-83
2023/06/10 00:54:48;;;;;;;10.82;7.30;;;18.20;99.90;;;-144.05;57.00;56853.09;5055060;28;20090;-83
2023/06/10 00:57:14;;;;;;;9.80;8.48;;;18.20;99.90;;;-144.05;57.22;56833.97;5055022;28;20063;-83
2023/06/10 00:59:48;;;;;;;10.13;8.07;;;18.10;99.90;;;-144.05;57.59;56829.72;5055301;28;20043;-84
2023/06/10 01:02:14;;;;;;;12.07;8.05;;;18.10;99.90;;;-144.05;57.65;56848.84;5055245;28;20033;-85
2023/06/10 01:04:41;;;;;;;11.00;8.80;;;18.10;99.90;;;-144.05;57.56;56846.72;5055204;28;20071;-83
2023/06/10 01:07:33;;;;;;;8.93;7.57;;;18.10;99.90;;;-144.05;57.74;56842.47;5054449;28;20036;-83
2023/06/10 01:10:05;;;;;;;11.35;7.95;;;18.10;99.90;;;-144.05;57.58;56867.94;5055053;28;20044;-83
2023/06/10 01:12:50;;;;;;;12.80;8.65;;;18.10;99.90;;;-144.05;57.72;56853.09;5054004;28;20535;-83
2023/06/10 01:15:18;;;;;;;10.68;7.95;;;18.00;99.90;;;-144.05;58.00;56846.72;5054478;28;20056;-81
2023/06/10 01:18:14;;;;;;;11.43;8.45;;;18.10;99.90;;;-144.05;58.41;56833.97;5054757;28;20498;-84
2023/06/10 01:20:43;;;;;;;11.30;8.20;;;18.00;99.90;;;-144.05;58.67;56829.72;5038629;28;20109;-83
2023/06/10 01:23:11;;;;;;;12.00;8.40;;;18.00;99.90;;;-144.05;58.43;56833.97;5072828;28;20024;-85
2023/06/10 01:25:54;;;;;;;10.80;7.93;;;17.90;99.90;;;-144.05;58.56;56827.59;5054445;28;20085;-83
2023/06/10 01:28:54;;;;;;;11.10;8.95;;;17.90;99.90;;;-144.05;58.86;56823.34;5054210;28;20408;-84
2023/06/10 01:32:17;;;;;;;13.77;9.60;;;17.80;99.90;;;-144.05;59.41;56829.72;5054436;28;20029;-82
2023/06/10 01:34:45;;;;;;;10.93;7.93;;;17.70;99.90;;;-144.05;59.24;56829.72;5045157;28;20036;-83
2023/06/10 01:37:24;;;;;;;12.10;7.97;;;17.70;99.90;;;-144.05;59.21;56844.59;5054192;28;20024;-85
2023/06/10 01:39:51;;;;;;;12.27;8.68;;;17.60;99.90;;;-144.05;59.76;56846.72;5068161;28;20031;-81
2023/06/10 01:42:18;;;;;;;14.35;10.13;;;17.60;99.90;;;-144.05;60.19;56823.34;5067304;28;20413;-83
2023/06/10 01:44:44;;;;;;;12.25;8.73;;;17.50;99.90;;;-144.05;60.69;56816.97;5054199;28;20028;-85
2023/06/10 01:47:10;;;;;;;11.95;9.23;;;17.40;99.90;;;-144.05;60.90;56857.34;5054393;28;20032;-85
2023/06/10 01:49:36;;;;;;;13.13;10.00;;;17.40;99.90;;;-144.05;60.90;56823.34;5070596;28;20056;-83
2023/06/10 01:52:02;;;;;;;12.63;10.05;;;17.40;99.90;;;-144.05;61.70;56831.84;5053831;28;20033;-84
2023/06/10 01:54:28;;;;;;;15.07;10.27;;;17.30;99.90;;;-144.05;61.59;56831.84;5053816;28;20039;-83
2023/06/10 01:56:54;;;;;;;11.93;9.50;;;17.30;99.90;;;-144.05;61.43;56829.72;5054104;28;20028;-82
2023/06/10 01:59:20;;;;;;;14.02;9.15;;;17.30;99.90;;;-144.05;61.70;56823.34;5071886;28;20024;-82
2023/06/10 02:01:46;;;;;;;10.82;9.23;;;17.20;99.90;;;-144.05;61.96;56831.84;5054039;28;20043;-83
2023/06/10 02:04:12;;;;;;;11.68;10.32;;;17.20;99.90;;;-144.05;62.05;56833.97;5054129;28;20075;-83
2023/06/10 02:06:38;;;;;;;12.60;10.40;;;17.20;99.90;;;-144.05;62.24;56829.72;5053893;28;20382;-84
2023/06/10 02:09:04;;;;;;;14.90;9.32;;;17.20;99.90;;;-144.05;62.03;56827.59;5053919;28;20036;-82
2023/06/10 02:11:29;;;;;;;12.38;9.57;;;17.20;99.90;;;-144.05;62.18;56831.84;5053612;28;20025;-84
2023/06/10 02:13:55;;;;;;;12.70;10.30;;;17.10;99.90;;;-144.05;62.37;56836.09;5053534;28;20033;-82
2023/06/10 02:16:21;;;;;;;14.88;9.70;;;17.10;99.90;;;-144.05;62.44;56840.34;5053527;28;20028;-82
2023/06/10 02:18:48;;;;;;;10.13;9.02;;;17.00;99.90;;;-144.05;62.45;56831.84;5053660;28;20044;-83
2023/06/10 02:21:14;;;;;;;16.92;11.70;;;17.00;99.90;;;-144.05;63.77;56836.09;5053734;28;20095;-83
2023/06/10 02:23:40;;;;;;;13.18;10.27;;;16.90;99.90;;;-144.05;63.57;56831.84;5053984;28;20058;-82
2023/06/10 02:26:06;;;;;;;13.18;10.27;;;16.90;99.90;;;-144.05;63.55;56844.59;5057212;28;20067;-82
2023/06/10 02:28:32;;;;;;;16.25;11.45;;;16.80;99.90;;;-144.05;63.96;56821.22;5058002;28;20028;-85
2023/06/10 02:30:59;;;;;;;14.55;12.10;;;16.80;99.90;;;-144.05;64.70;56825.47;5075587;28;20445;-82
2023/06/10 02:33:24;;;;;;;14.77;10.90;;;16.80;99.90;;;-144.05;64.25;56833.97;5074665;28;20081;-83
2023/06/10 02:35:50;;;;;;;14.73;11.05;;;16.80;99.90;;;-144.05;64.26;56833.97;5075474;28;20474;-83
2023/06/10 02:38:16;;;;;;;15.63;10.93;;;16.70;99.90;;;-144.05;64.48;56836.09;5057522;28;20120;-83
2023/06/10 02:40:42;;;;;;;18.90;12.88;;;16.70;99.90;;;-144.05;65.03;56833.97;5057660;28;20028;-83
2023/06/10 02:43:09;;;;;;;14.27;12.02;;;16.70;99.90;;;-144.05;64.91;56829.72;5057941;28;20029;-81
2023/06/10 02:45:35;;;;;;;16.58;12.00;;;16.80;99.90;;;-144.05;64.74;56838.22;5057460;28;20025;-82
2023/06/10 02:48:01;;;;;;;16.10;12.65;;;16.70;99.90;;;-144.05;65.16;56827.59;5075847;28;20440;-84
2023/06/10 02:50:27;;;;;;;15.27;12.00;;;16.70;99.90;;;-144.05;65.19;56831.84;5058142;28;20031;-83
2023/06/10 02:52:53;;;;;;;15.70;12.88;;;16.70;99.90;;;-144.05;65.51;56829.72;5074213;28;20032;-85
2023/06/10 02:55:19;;;;;;;16.00;14.10;;;16.60;99.90;;;-144.05;66.11;56823.34;5057157;28;20032;-82
2023/06/10 02:57:45;;;;;;;17.90;14.32;;;16.60;99.90;;;-144.05;66.07;56831.84;5057408;28;20124;-84
2023/06/10 03:00:13;;;;;;;23.38;13.70;;;16.60;99.90;;;-144.05;66.00;56853.09;5057295;28;20102;-83
2023/06/10 03:02:39;;;;;;;16.77;13.82;;;16.70;99.90;;;-144.05;65.73;56827.59;5075468;28;20062;-83
2023/06/10 03:05:09;;;;;;;17.67;15.30;;;16.60;99.90;;;-144.05;66.26;56848.84;5057975;28;20105;-83
2023/06/10 03:07:37;;;;;;;16.65;14.85;;;16.60;99.90;;;-144.05;65.85;56857.34;5057834;28;20540;-82
2023/06/10 03:10:03;;;;;;;18.20;13.52;;;16.70;99.90;;;-144.05;65.88;56827.59;5057252;28;20028;-85
2023/06/10 03:12:29;;;;;;;17.10;14.73;;;16.70;99.90;;;-144.05;65.79;56836.09;5057391;28;20036;-84
2023/06/10 03:14:55;;;;;;;19.67;14.90;;;16.70;99.90;;;-144.05;66.21;56819.09;5057041;28;20024;-81
2023/06/10 03:17:21;;;;;;;16.83;14.52;;;16.70;99.90;;;-144.05;66.16;56867.94;5075219;28;20466;-84
2023/06/10 03:19:47;;;;;;;15.63;13.07;;;16.70;99.90;;;-144.05;66.29;56827.59;5057693;28;20029;-83
2023/06/10 03:22:16;;;;;;;16.85;15.05;;;16.60;99.90;;;-144.05;66.73;56838.22;5057181;28;20032;-84
2023/06/10 03:24:43;;;;;;;19.65;15.80;;;16.50;99.90;;;-144.05;66.93;56844.59;5073310;28;20107;-83
2023/06/10 03:27:10;;;;;;;21.10;15.32;;;16.50;99.90;;;-144.05;67.20;56850.97;5057868;28;20032;-82
2023/06/10 03:29:37;;;;;;;16.08;13.75;;;16.50;99.90;;;-144.05;66.91;56836.09;5082000;28;20012;-82
2023/06/10 03:32:04;;;;;;;18.42;14.18;;;16.50;99.90;;;-144.05;66.80;56825.47;5057337;28;20032;-83
2023/06/10 03:34:30;;;;;;;18.90;15.02;;;16.40;99.90;;;-144.05;67.30;56840.34;5056976;28;20475;-82
2023/06/10 03:36:57;;;;;;;19.65;15.07;;;16.40;99.90;;;-144.05;67.43;56816.97;5056650;28;20062;-82
2023/06/10 03:39:23;;;;;;;18.25;14.35;;;16.40;99.90;;;-144.05;67.46;56823.34;5056390;28;20082;-83
2023/06/10 03:41:50;;;;;;;17.25;13.65;;;16.40;99.90;;;-144.05;67.56;56816.97;5073436;28;20036;-83
2023/06/10 03:44:17;;;;;;;18.27;14.20;;;16.30;99.90;;;-144.05;67.83;56827.59;5056483;28;20039;-83
2023/06/10 03:46:42;;;;;;;17.67;15.23;;;16.30;99.90;;;-144.05;68.50;56810.59;5056618;28;20083;-82
2023/06/10 03:49:09;;;;;;;17.40;14.30;;;16.30;99.90;;;-144.05;68.10;56848.84;5058669;28;20455;-82
2023/06/10 03:51:36;;;;;;;21.58;15.50;;;16.30;99.90;;;-144.05;68.27;56840.34;5055966;28;20128;-82
2023/06/10 03:54:02;;;;;;;23.30;15.25;;;16.30;99.90;;;-144.05;67.99;56836.09;5056092;28;20028;-82
2023/06/10 03:56:28;;;;;;;19.67;14.98;;;16.30;99.90;;;-144.05;67.11;56838.22;5055799;28;20554;-82
2023/06/10 03:58:55;;;;;;;17.80;13.65;;;16.40;99.90;;;-144.05;66.47;56836.09;5055965;28;20028;-82
2023/06/10 04:01:23;;;;;;;15.70;12.98;;;16.50;99.90;;;-144.05;65.91;56836.09;5055708;28;20443;-83
2023/06/10 04:03:51;;;;;;;16.98;12.50;;;16.50;99.90;;;-144.05;65.81;56853.09;5072477;28;20440;-84
2023/06/10 04:06:17;;;;;;;19.23;13.68;;;16.50;99.90;;;-144.05;65.81;56848.84;5073771;28;20394;-80
2023/06/10 04:08:43;;;;;;;16.95;13.38;;;16.50;99.90;;;-144.05;65.67;56825.47;5060807;28;20037;-80
2023/06/10 04:11:09;;;;;;;14.07;12.07;;;16.50;99.90;;;-144.05;65.47;56804.22;5060901;28;20075;-83
2023/06/10 04:13:36;;;;;;;19.08;12.88;;;16.50;99.90;;;-144.05;65.32;56831.84;5059830;28;20483;-83
2023/06/10 04:16:02;;;;;;;23.25;11.63;;;16.60;99.90;;;-144.05;65.28;56840.34;5060164;28;20424;-84
2023/06/10 04:18:28;;;;;;;13.50;12.07;;;16.50;99.90;;;-144.05;65.17;56836.09;5060710;28;20067;-84
2023/06/10 04:20:55;;;;;;;17.30;12.40;;;16.50;99.90;;;-144.05;64.57;56823.34;5078448;28;20054;-82
2023/06/10 04:23:21;;;;;;;15.18;12.13;;;16.50;99.90;;;-144.05;63.79;56810.59;5060268;28;20223;-81
2023/06/10 04:25:47;;;;;;;16.50;11.60;;;16.60;99.90;;;-144.05;63.37;56848.84;5059988;28;20074;-81
2023/06/10 04:28:13;;;;;;;16.98;12.35;;;16.60;99.90;;;-144.05;63.03;56831.84;5078010;28;20044;-82
2023/06/10 04:30:39;;;;;;;14.75;11.65;;;16.70;99.90;;;-144.05;62.60;56840.34;5059722;28;20024;-83
2023/06/10 04:33:06;;;;;;;12.70;10.88;;;16.80;99.90;;;-144.05;62.47;56838.22;5059504;28;20054;-83
2023/06/10 04:35:32;;;;;;;17.00;12.63;;;16.80;99.90;;;-144.05;61.90;56802.09;5060275;28;20486;-83
2023/06/10 04:37:58;;;;;;;17.38;11.55;;;16.90;99.90;;;-144.05;61.65;56816.97;5059638;28;20036;-82
2023/06/10 04:40:24;;;;;;;19.15;12.93;;;17.00;99.90;;;-144.05;60.68;56846.72;5060182;28;20051;-85
2023/06/10 04:42:50;;;;;;;15.13;12.02;;;17.00;99.90;;;-144.05;60.45;56857.34;5060162;28;20033;-82
2023/06/10 04:45:16;;;;;;;15.27;12.38;;;17.10;99.90;;;-144.05;59.85;56814.84;5059749;28;20035;-84
2023/06/10 04:47:43;;;;;;;14.60;11.55;;;17.10;99.90;;;-144.05;59.32;56831.84;5059437;28;20033;-80
2023/06/10 04:50:09;;;;;;;15.63;11.13;;;17.20;99.90;;;-144.05;58.85;56857.34;5078203;28;20024;-80
2023/06/10 04:52:35;;;;;;;16.27;12.07;;;17.30;99.90;;;-144.05;58.70;56819.09;5069322;22;20065;-84
2023/06/10 04:55:01;;;;;;;14.13;9.98;;;17.40;99.90;;;-144.05;57.97;56846.72;5034391;28;20088;-83
2023/06/10 04:57:27;;;;;;;14.30;10.55;;;17.50;99.90;;;-144.05;57.38;56855.22;5038155;28;20029;-82
2023/06/10 04:59:53;;;;;;;13.32;10.60;;;17.50;99.90;;;-144.05;56.94;56836.09;5035644;28;20025;-83
2023/06/10 05:02:19;;;;;;;16.95;10.63;;;17.70;99.90;;;-144.05;56.11;56848.84;5034127;28;20057;-83
2023/06/10 05:04:45;;;;;;;13.68;10.20;;;17.80;99.90;;;-144.05;55.49;56844.59;5035298;28;20157;-83
2023/06/10 05:07:11;;;;;;;11.90;9.55;;;17.90;99.90;;;-144.05;55.41;56859.47;5037906;28;20025;-81
2023/06/10 05:09:37;;;;;;;13.90;10.05;;;18.00;99.90;;;-144.05;54.86;56872.19;5038267;28;20034;-79
2023/06/10 05:12:04;;;;;;;13.75;9.50;;;18.20;99.90;;;-144.05;54.01;56838.22;5038624;28;20036;-81
2023/06/10 05:14:31;;;;;;;11.25;8.95;;;18.40;99.90;;;-144.05;53.42;56838.22;5046556;28;20034;-82
2023/06/10 05:16:57;;;;;;;11.43;9.30;;;18.60;99.90;;;-144.05;52.33;56846.72;5046174;28;20021;-83
2023/06/10 05:19:23;;;;;;;13.45;9.50;;;18.70;99.90;;;-144.05;51.75;56838.22;5044760;28;20096;-82
2023/06/10 05:21:49;;;;;;;12.75;8.88;;;18.80;99.90;;;-144.05;51.34;56850.97;5044858;28;20036;-80
2023/06/10 05:24:15;;;;;;;11.65;8.52;;;18.90;99.90;;;-144.05;50.94;56842.47;5044739;28;20029;-81
2023/06/10 05:26:41;;;;;;;12.25;8.90;;;19.10;99.90;;;-144.05;49.79;56861.56;5059397;28;20384;-80
2023/06/10 05:29:09;;;;;;;11.23;8.65;;;19.20;99.90;;;-144.05;49.70;56891.31;5043489;28;20033;-80
2023/06/10 05:31:34;;;;;;;12.15;8.07;;;19.30;99.90;;;-144.05;49.39;56872.19;5042485;28;20036;-83
2023/06/10 05:34:00;;;;;;;12.13;8.35;;;19.40;99.90;;;-144.05;48.87;56853.09;5043326;28;20422;-83
2023/06/10 05:36:27;;;;;;;11.13;8.60;;;19.50;99.90;;;-144.05;48.46;56874.31;5042937;28;20029;-84
2023/06/10 05:38:53;;;;;;;11.88;8.25;;;19.80;99.90;;;-144.05;48.71;56861.56;5041814;28;20077;-80
2023/06/10 05:41:19;;;;;;;13.30;9.55;;;19.80;99.90;;;-144.05;47.94;56872.19;5041179;28;20075;-81
2023/06/10 05:43:45;;;;;;;13.32;9.00;;;19.90;99.90;;;-144.05;47.91;56857.34;5037887;28;20038;-80
2023/06/10 05:46:11;;;;;;;11.40;8.07;;;19.90;99.90;;;-144.05;47.53;56853.09;5040049;28;20034;-80
2023/06/10 05:48:37;;;;;;;10.57;7.80;;;20.10;99.90;;;-144.05;46.93;56867.94;5038582;28;20041;-80
2023/06/10 05:51:03;;;;;;;11.32;7.88;;;20.10;99.90;;;-144.05;46.96;56853.09;5038115;28;20109;-80
2023/06/10 05:53:28;;;;;;;9.80;8.10;;;20.20;99.90;;;-144.05;46.45;56859.47;5037316;28;20136;-83
2023/06/10 05:55:57;;;;;;;9.88;8.05;;;20.40;99.90;;;-144.05;46.06;56880.69;5037333;28;20053;-82
2023/06/10 05:58:24;;;;;;;9.85;7.80;;;20.60;99.90;;;-144.05;45.20;56882.81;5035274;28;20147;-82
2023/06/10 06:00:50;;;;;;;9.10;6.97;;;20.80;99.90;;;-144.05;44.92;56874.31;5038448;28;20371;-78
2023/06/10 06:03:17;;;;;;;8.82;7.22;;;20.90;99.90;;;-144.05;44.66;56893.44;5037325;28;20114;-81
2023/06/10 06:05:43;;;;;;;9.63;7.38;;;21.30;99.90;;;-144.05;43.32;56874.31;5036889;28;20032;-79
2023/06/10 06:08:10;;;;;;;9.23;6.60;;;21.40;99.90;;;-144.05;43.00;56897.69;5036898;28;20033;-81
2023/06/10 06:10:36;;;;;;;8.60;6.82;;;21.50;99.90;;;-144.05;42.43;56916.81;5042729;28;20061;-81
2023/06/10 06:13:03;;;;;;;9.30;6.70;;;21.70;99.90;;;-144.05;42.93;56906.19;5034337;28;20029;-78
2023/06/10 06:15:28;;;;;;;10.13;7.93;;;21.90;99.90;;;-144.05;42.43;56904.06;5050501;28;20029;-78
2023/06/10 06:17:55;;;;;;;9.68;6.82;;;22.00;99.90;;;-144.05;41.88;56923.19;5034507;28;20458;-79
2023/06/10 06:20:22;;;;;;;8.38;6.35;;;21.90;99.90;;;-144.05;42.12;56918.94;5035418;28;20022;-79
2023/06/10 06:22:49;;;;;;;12.23;6.68;;;22.20;99.90;;;-144.05;40.67;56912.56;5034742;28;20056;-80
2023/06/10 06:25:15;;;;;;;12.80;7.25;;;22.40;99.90;;;-144.05;40.73;56895.56;5036269;28;20030;-78
2023/06/10 06:27:41;;;;;;;7.97;6.10;;;22.20;99.90;;;-144.05;41.10;56889.19;5035943;28;20383;-79
2023/06/10 06:30:08;;;;;;;10.93;6.38;;;22.10;99.90;;;-144.05;40.59;56889.19;5036070;28;20562;-80
2023/06/10 06:32:34;;;;;;;8.55;6.07;;;22.10;99.90;;;-144.05;40.34;56906.19;5038043;28;20030;-79
2023/06/10 06:34:59;;;;;;;9.93;6.93;;;22.30;99.90;;;-144.05;39.97;56884.94;5038796;28;20528;-80
2023/06/10 06:37:26;;;;;;;6.97;5.95;;;22.30;99.90;;;-144.05;40.32;56889.19;5038268;28;20049;-80
2023/06/10 06:39:53;;;;;;;13.73;6.18;;;22.30;99.90;;;-144.05;39.98;56921.06;5037012;28;20025;-81
2023/06/10 06:42:20;;;;;;;9.85;6.30;;;22.40;99.90;;;-144.05;40.39;56908.31;5038994;28;20021;-81
2023/06/10 06:44:47;;;;;;;7.93;5.85;;;22.50;99.90;;;-144.05;39.77;56891.31;5038501;28;20457;-79
2023/06/10 06:47:13;;;;;;;7.93;5.20;;;22.80;99.90;;;-144.05;39.15;56921.06;5037142;28;20025;-79
2023/06/10 06:49:39;;;;;;;9.48;6.47;;;23.30;99.90;;;-144.05;38.10;56948.66;5036405;28;20025;-79
2023/06/10 06:52:05;;;;;;;7.68;5.80;;;23.70;99.90;;;-144.05;38.11;56933.78;5036064;28;20025;-82
2023/06/10 06:54:32;;;;;;;8.10;5.32;;;23.50;99.90;;;-144.05;38.28;56950.78;5052884;28;20040;-82
2023/06/10 06:56:58;;;;;;;8.00;5.65;;;23.80;99.90;;;-144.05;38.04;56944.41;5037991;28;20031;-81
2023/06/10 06:59:25;;;;;;;8.10;5.72;;;23.80;99.90;;;-144.05;37.74;56963.53;5035582;28;20057;-79
2023/06/10 07:01:53;;;;;;;10.60;6.18;;;24.00;99.90;;;-144.05;37.25;56935.91;5037848;28;20041;-79
2023/06/10 07:04:21;;;;;;;7.75;5.75;;;24.00;99.90;;;-144.05;37.30;56933.78;5037511;28;20037;-80
2023/06/10 07:06:48;;;;;;;8.98;5.35;;;24.10;99.90;;;-144.05;37.04;56940.16;5036544;28;20038;-80
2023/06/10 07:09:14;;;;;;;7.68;5.32;;;24.30;99.90;;;-144.05;36.82;56950.78;5036270;28;20025;-83
2023/06/10 07:11:40;;;;;;;8.15;5.50;;;24.30;99.50;;;-144.05;36.40;56948.66;5055466;28;20029;-78
2023/06/10 07:14:07;;;;;;;6.95;5.20;;;24.30;98.40;;;-144.05;36.52;57003.88;5039925;28;20025;-80
2023/06/10 07:16:34;;;;;;;8.93;5.22;;;24.60;99.50;;;-144.05;36.19;56965.66;5042501;28;20033;-81
2023/06/10 07:18:59;;;;;;;10.07;5.32;;;24.70;97.90;;;-144.05;36.37;56965.66;5040986;28;20080;-80
2023/06/10 07:21:25;;;;;;;8.05;5.45;;;24.80;98.20;;;-144.05;35.95;56978.41;5041518;28;20029;-80
2023/06/10 07:23:53;;;;;;;8.27;5.05;;;25.10;97.70;;;-144.05;35.19;56972.03;5039793;28;20033;-79
2023/06/10 07:26:21;;;;;;;9.68;5.22;;;25.10;96.00;;;-144.05;36.09;56946.53;5040746;28;20051;-79
2023/06/10 07:28:47;;;;;;;9.48;5.30;;;24.90;96.20;;;-144.05;35.34;56969.91;5040313;28;20581;-82
2023/06/10 07:31:13;;;;;;;8.77;4.63;;;24.90;95.20;;;-144.05;35.21;56984.78;5038395;28;20029;-81
2023/06/10 07:33:39;;;;;;;6.57;4.60;;;25.10;95.20;;;-144.05;35.15;56999.63;5040223;28;20486;-79
2023/06/10 07:36:07;;;;;;;9.70;4.80;;;25.30;95.40;;;-144.05;34.23;56965.66;5042159;28;20044;-79
2023/06/10 07:38:33;;;;;;;8.88;4.90;;;25.40;94.30;;;-144.05;35.00;56942.28;5041004;28;20131;-80
2023/06/10 07:40:59;;;;;;;5.78;4.30;;;25.10;94.00;;;-144.05;35.97;56950.78;5040706;28;20104;-80
2023/06/10 07:43:25;;;;;;;5.35;4.40;;;24.90;95.00;;;-144.05;34.72;56978.41;5055776;28;20036;-81
2023/06/10 07:45:51;;;;;;;11.15;5.00;;;25.30;94.10;;;-144.05;34.19;56978.41;5047111;28;20029;-82
2023/06/10 07:48:18;;;;;;;7.97;4.68;;;25.70;93.60;;;-144.05;34.26;57014.50;5045876;28;20033;-84
2023/06/10 07:50:44;;;;;;;11.57;4.70;;;25.70;93.20;;;-144.05;34.42;56999.63;5042413;28;20044;-81
2023/06/10 07:53:10;;;;;;;5.85;4.57;;;25.60;92.90;;;-144.05;34.18;57050.63;5043508;28;20033;-83
2023/06/10 07:55:36;;;;;;;6.97;4.35;;;26.10;93.00;;;-144.05;33.78;57042.13;5045546;28;20026;-83
2023/06/10 07:58:02;;;;;;;10.55;4.40;;;26.50;92.00;;;-144.05;33.48;57023.00;5045284;28;20029;-82
2023/06/10 08:00:28;;;;;;;8.52;4.47;;;26.70;92.10;;;-144.05;33.37;57050.63;5044807;28;20026;-80
2023/06/10 08:02:53;;;;;;;7.18;4.03;;;26.60;91.50;;;-144.05;33.47;57025.13;5043846;28;20034;-80
2023/06/10 08:05:20;;;;;;;6.70;4.05;;;26.80;91.00;;;-144.05;33.75;57048.50;5044177;28;20029;-80
2023/06/10 08:07:46;;;;;;;6.03;4.05;;;27.00;91.10;;;-144.05;33.35;57040.00;5042407;28;20164;-81
2023/06/10 08:10:12;;;;;;;6.90;4.80;;;26.60;90.80;;;-144.05;33.54;57027.25;5043741;28;20030;-80
2023/06/10 08:12:38;;;;;;;7.65;4.70;;;26.60;90.90;;;-144.05;33.56;57016.63;5044051;28;20426;-80
2023/06/10 08:15:05;;;;;;;8.32;4.15;;;26.60;90.60;;;-144.05;33.37;57040.00;5045240;28;20029;-80
2023/06/10 08:17:31;;;;;;;9.38;4.90;;;26.60;90.90;;;-144.05;33.01;57073.97;5043470;28;20171;-81
2023/06/10 08:19:57;;;;;;;6.93;4.78;;;27.30;90.50;;;-144.05;32.37;57069.72;5041034;28;20096;-82
2023/06/10 08:22:23;;;;;;;7.10;4.13;;;27.50;88.80;;;-144.05;32.20;57078.22;5040848;28;20036;-81
2023/06/10 08:24:49;;;;;;;9.43;4.80;;;27.80;87.10;;;-144.05;31.91;57095.22;5041614;28;20040;-83
2023/06/10 08:27:15;;;;;;;6.65;3.75;;;27.60;85.00;;;-144.05;32.63;57084.59;5044375;28;20033;-82
2023/06/10 08:29:40;;;;;;;7.05;5.03;;;27.70;87.50;;;-144.05;32.61;57086.72;5041349;28;20374;-82
2023/06/10 08:32:07;;;;;;;6.00;3.75;;;27.60;86.50;;;-144.05;32.05;57065.47;5041710;28;20085;-81
2023/06/10 08:34:36;;;;;;;4.60;3.88;;;27.40;84.90;;;-144.05;32.24;57067.59;5042168;28;20433;-83
2023/06/10 08:37:04;;;;;;;6.22;4.38;;;27.60;86.00;;;-144.05;32.70;57069.72;5037513;28;20021;-81
2023/06/10 08:39:32;;;;;;;6.13;3.60;;;27.90;86.90;;;-144.05;31.75;57129.22;5038800;28;20490;-82
2023/06/10 08:42:48;;;;;;;10.15;4.20;;;28.20;83.90;;;-144.05;31.32;57135.56;5042957;28;20060;-77
2023/06/10 08:45:18;;;;;;;6.75;4.03;;;28.30;82.60;;;-144.05;31.30;57101.59;5039372;28;20471;-82
2023/06/10 08:47:53;;;;;;;6.60;3.55;;;28.30;82.20;;;-144.05;31.11;57129.22;5041432;28;20534;-82
2023/06/10 08:50:20;;;;;;;8.23;4.70;;;28.60;81.50;;;-144.05;30.96;57152.56;5039076;28;20021;-85
2023/06/10 08:52:57;;;;;;;6.00;4.00;;;28.70;80.30;;;-144.05;30.77;57139.81;5038336;28;20315;-80
2023/06/10 08:55:41;;;;;;;6.70;3.70;;;28.80;79.60;;;-144.05;31.01;57141.94;5038143;28;20410;-81
2023/06/10 08:58:07;;;;;;;6.90;4.18;;;29.00;80.50;;;-144.05;30.75;57146.19;5040228;28;20056;-81
2023/06/10 09:00:34;;;;;;;6.97;4.03;;;29.10;79.20;;;-144.05;31.15;57158.94;5055302;28;20056;-82
2023/06/10 09:03:02;;;;;;;6.20;4.20;;;29.00;80.70;;;-144.05;30.60;57150.44;5039302;28;20029;-82
2023/06/10 09:05:29;;;;;;;7.55;4.20;;;28.90;77.90;;;-144.05;30.10;57154.69;5041334;28;20093;-82
2023/06/10 09:08:00;;;;;;;5.88;3.90;;;29.30;76.60;;;-144.05;30.65;57144.06;5038932;28;20060;-82
2023/06/10 09:10:26;;;;;;;5.28;3.58;;;29.40;78.60;;;-144.05;29.97;57144.06;5041774;28;20479;-81
2023/06/10 09:12:53;;;;;;;4.43;3.67;;;29.60;76.00;;;-144.05;30.33;57148.31;5038106;28;20045;-84
2023/06/10 09:15:19;;;;;;;5.85;4.28;;;29.20;75.20;;;-144.05;30.39;57167.44;5036245;28;20406;-81
2023/06/10 09:17:45;;;;;;;11.60;4.70;;;29.10;75.70;;;-144.05;31.07;57150.44;5037298;28;20143;-79
2023/06/10 09:20:12;;;;;;;8.82;4.20;;;29.20;77.40;;;-144.05;30.21;57148.31;5038942;28;20022;-80
2023/06/10 09:22:38;;;;;;;5.32;3.75;;;29.50;75.30;;;-144.05;30.31;57137.69;5040783;28;20124;-83
2023/06/10 09:25:11;;;;;;;7.15;4.40;;;29.50;75.30;;;-144.05;30.12;57201.44;5039114;28;20040;-81
2023/06/10 09:27:56;;;;;;;7.30;3.90;;;29.40;74.80;;;-144.05;30.00;57144.06;5038380;28;20626;-82
2023/06/10 09:30:31;;;;;;;5.20;4.20;;;29.60;74.40;;;-144.05;29.93;57152.56;5039247;28;20021;-84
2023/06/10 09:33:10;;;;;;;6.60;4.07;;;29.50;72.90;;;-144.05;29.52;57163.19;5035956;28;20033;-81
2023/06/10 09:35:36;;;;;;;7.78;4.10;;;29.60;71.80;;;-144.05;30.21;57178.06;5039179;28;20025;-82
2023/06/10 09:38:02;;;;;;;6.18;3.72;;;29.80;74.50;;;-144.05;29.71;57190.81;5039619;28;20541;-81
2023/06/10 09:40:28;;;;;;;6.45;3.85;;;30.00;72.60;;;-144.05;28.98;57246.03;5039576;28;20025;-81
2023/06/10 09:42:59;;;;;;;5.25;3.90;;;30.30;71.00;;;-144.05;29.07;57222.66;5037170;28;20059;-82
2023/06/10 09:45:31;;;;;;;6.18;3.83;;;30.60;71.10;;;-144.05;28.37;57248.16;5038239;28;20026;-81
2023/06/10 09:47:57;;;;;;;7.03;4.20;;;30.70;68.80;;;-144.05;28.26;57205.66;5039051;28;20048;-82
2023/06/10 09:50:23;;;;;;;8.30;4.15;;;30.80;67.60;;;-144.05;28.54;57256.66;5037395;28;20033;-83
2023/06/10 09:52:51;;;;;;;5.55;4.10;;;31.10;69.20;;;-144.05;28.40;57254.53;5038520;28;20049;-81
2023/06/10 09:55:18;;;;;;;8.45;4.60;;;31.20;68.20;;;-144.05;28.66;57226.91;5039795;28;20034;-81
2023/06/10 09:57:47;;;;;;;4.90;3.90;;;31.00;68.40;;;-144.05;29.22;57216.28;5041016;28;20021;-83
2023/06/10 10:00:15;;;;;;;8.05;4.53;;;30.90;70.40;;;-144.05;28.38;57254.53;5036997;28;20047;-81
2023/06/10 10:02:54;;;;;;;6.00;4.18;;;30.80;67.30;;;-144.05;28.64;57207.78;5035972;28;20034;-82